Time;durP1;ratioP1;P1;durP2;ratioP2;P2;SDS_P1;SDS_P2;PMS_P1;PMS_P2;Temp;Humidity;BMP_temperature;BMP_pressure;BME280_temperature;BME280_humidity;BME280_pressure;Samples;Min_cycle;Max_cycle;Signal;HPM_P1;HPM_P2
2021/03/03 00:02:19;;;;;;;335.52;169.05;;;;;;;-0.33;77.56;100556.61;123814;1102;64908;-78
2021/03/03 00:04:45;;;;;;;315.20;161.87;;;;;;;-0.36;77.45;100558.35;123762;1102;65378;-77
2021/03/03 00:07:13;;;;;;;338.77;170.37;;;;;;;-0.38;78.05;100560.95;123772;1102;64954;-78
2021/03/03 00:09:40;;;;;;;330.93;164.33;;;;;;;-0.39;77.46;100567.08;123766;1101;66543;-76
2021/03/03 00:12:08;;;;;;;377.03;186.50;;;;;;;-0.41;77.83;100560.95;123731;1102;64930;-76
2021/03/03 00:14:36;;;;;;;371.97;192.87;;;;;;;-0.40;78.48;100553.96;123793;1102;64899;-77
2021/03/03 00:17:03;;;;;;;349.87;175.13;;;;;;;-0.41;78.13;100560.09;123753;1101;64905;-77
2021/03/03 00:19:29;;;;;;;350.40;173.25;;;;;;;-0.42;78.41;100558.31;123782;1102;64864;-77
2021/03/03 00:21:55;;;;;;;343.53;164.97;;;;;;;-0.43;77.84;100557.45;123829;1102;65020;-77
2021/03/03 00:24:21;;;;;;;347.50;169.10;;;;;;;-0.44;77.98;100550.47;123362;1102;65147;-77
2021/03/03 00:26:48;;;;;;;350.17;179.90;;;;;;;-0.45;78.81;100552.22;123474;1102;64966;-77
2021/03/03 00:29:15;;;;;;;356.53;190.43;;;;;;;-0.45;78.14;100544.37;123800;1102;64828;-77
2021/03/03 00:31:41;;;;;;;362.03;188.73;;;;;;;-0.45;78.84;100544.37;123815;1102;64937;-77
2021/03/03 00:34:07;;;;;;;355.70;180.85;;;;;;;-0.50;78.43;100540.86;123761;1102;64828;-79
2021/03/03 00:36:34;;;;;;;346.17;174.73;;;;;;;-0.42;78.50;100542.60;123793;1102;65043;-77
2021/03/03 00:39:00;;;;;;;339.50;171.32;;;;;;;-0.42;78.72;100542.60;123817;1102;64879;-78
2021/03/03 00:41:27;;;;;;;338.65;178.47;;;;;;;-0.46;78.46;100541.73;123398;1102;64956;-77
2021/03/03 00:43:53;;;;;;;361.17;186.83;;;;;;;-0.50;78.30;100535.63;123826;1102;64982;-78
2021/03/03 00:46:19;;;;;;;335.00;173.13;;;;;;;-0.48;78.17;100539.09;123464;1102;64992;-76
2021/03/03 00:48:46;;;;;;;333.20;167.97;;;;;;;-0.50;78.41;100535.63;123415;1102;64975;-78
2021/03/03 00:51:12;;;;;;;317.03;165.23;;;;;;;-0.47;78.19;100535.63;123851;1102;64921;-77
2021/03/03 00:53:38;;;;;;;337.43;178.27;;;;;;;-0.51;78.99;100527.75;123793;1102;64934;-78
2021/03/03 00:56:05;;;;;;;305.43;164.50;;;;;;;-0.52;78.23;100526.02;123422;1102;64902;-78
2021/03/03 00:58:31;;;;;;;308.63;161.63;;;;;;;-0.54;78.79;100530.36;123814;1102;64933;-77
2021/03/03 01:00:58;;;;;;;309.95;153.35;;;;;;;-0.52;78.23;100526.02;123842;1101;64908;-77
2021/03/03 01:03:25;;;;;;;294.70;155.20;;;;;;;-0.50;78.17;100526.87;123756;1102;64914;-76
2021/03/03 01:05:51;;;;;;;301.17;158.83;;;;;;;-0.54;78.52;100520.76;123812;1102;64933;-76
2021/03/03 01:08:18;;;;;;;278.60;149.20;;;;;;;-0.60;78.47;100519.88;123760;1101;64891;-76
2021/03/03 01:10:44;;;;;;;273.02;144.28;;;;;;;-0.66;78.44;100518.09;123807;1102;64860;-77
2021/03/03 01:13:10;;;;;;;271.97;144.07;;;;;;;-0.74;78.12;100519.81;123819;1102;64908;-78
2021/03/03 01:15:37;;;;;;;271.87;146.43;;;;;;;-0.77;78.74;100522.42;123394;1102;65223;-78
2021/03/03 01:18:03;;;;;;;276.60;150.27;;;;;;;-0.81;78.56;100513.70;123441;1102;64936;-78
2021/03/03 01:20:31;;;;;;;265.57;147.50;;;;;;;-0.82;78.48;100513.68;123783;1102;64902;-78
2021/03/03 01:22:59;;;;;;;280.30;143.40;;;;;;;-0.86;78.09;100509.32;123772;1102;64889;-77
2021/03/03 01:25:26;;;;;;;273.50;144.10;;;;;;;-0.90;78.09;100521.50;123391;1102;65023;-78
2021/03/03 01:27:53;;;;;;;268.90;144.40;;;;;;;-0.94;78.76;100522.38;123438;1102;64869;-77
2021/03/03 01:30:19;;;;;;;285.20;156.90;;;;;;;-0.96;78.84;100524.10;123804;1102;64889;-78
2021/03/03 01:32:46;;;;;;;284.73;151.53;;;;;;;-0.93;78.65;100508.41;123821;1102;64913;-78
2021/03/03 01:35:13;;;;;;;269.62;143.15;;;;;;;-0.92;78.45;100510.17;123751;1102;65361;-77
2021/03/03 01:37:39;;;;;;;256.33;143.53;;;;;;;-0.94;78.31;100506.67;123823;1102;64908;-78
2021/03/03 01:40:06;;;;;;;284.60;157.40;;;;;;;-0.94;78.91;100514.52;123823;1102;64876;-77
2021/03/03 01:42:34;;;;;;;274.30;150.83;;;;;;;-0.91;79.23;100512.78;123779;1102;65013;-78
2021/03/03 01:45:01;;;;;;;281.63;149.77;;;;;;;-0.86;79.53;100506.70;123824;1102;64991;-77
2021/03/03 01:47:27;;;;;;;252.17;136.07;;;;;;;-0.85;79.19;100497.97;123809;1102;65227;-78
2021/03/03 01:49:53;;;;;;;262.30;141.73;;;;;;;-0.86;78.83;100502.34;123759;1102;64882;-77
2021/03/03 01:52:20;;;;;;;264.45;143.52;;;;;;;-0.84;78.96;100504.94;123810;1102;64988;-77
2021/03/03 01:54:46;;;;;;;258.10;140.37;;;;;;;-0.92;79.09;100497.96;123770;1102;65266;-77
2021/03/03 01:57:13;;;;;;;233.30;126.57;;;;;;;-0.98;78.70;100497.05;123799;1102;65011;-77
2021/03/03 01:59:39;;;;;;;272.60;142.93;;;;;;;-1.06;78.36;100496.14;123775;1102;65016;-77
2021/03/03 02:02:06;;;;;;;251.50;139.70;;;;;;;-1.11;78.74;100496.11;123792;1102;64985;-77
2021/03/03 02:04:36;;;;;;;238.33;131.23;;;;;;;-1.17;78.51;100499.58;123789;1102;64838;-77
2021/03/03 02:07:09;;;;;;;243.00;137.90;;;;;;;-1.16;78.76;100498.73;123861;1102;64876;-77
2021/03/03 02:09:59;;;;;;;221.30;126.87;;;;;;;-1.16;79.14;100497.83;123800;1102;64931;-77
2021/03/03 02:12:29;;;;;;;;;;;;;;;-1.20;79.27;100493.47;123799;1102;64885;-77
2021/03/03 02:14:59;;;;;;;224.85;125.75;;;;;;;-1.25;78.72;100492.57;123834;1101;64966;-78
2021/03/03 02:17:29;;;;;;;237.97;129.07;;;;;;;-1.28;79.33;100487.33;123826;1102;64908;-77
2021/03/03 02:20:01;;;;;;;236.90;131.70;;;;;;;-1.31;78.79;100489.94;123850;1101;64905;-77
2021/03/03 02:22:35;;;;;;;244.33;131.87;;;;;;;-1.34;78.73;100486.42;123463;1102;64882;-77
2021/03/03 02:25:28;;;;;;;228.13;129.00;;;;;;;-1.37;78.84;100483.80;123409;1102;64985;-77
2021/03/03 02:27:59;;;;;;;230.80;129.23;;;;;;;-1.38;78.69;100478.55;123793;1102;64908;-77
2021/03/03 02:30:26;;;;;;;228.17;125.37;;;;;;;-1.38;79.10;100475.94;123766;1102;64937;-77
2021/03/03 02:32:54;;;;;;;235.80;130.57;;;;;;;-1.40;79.42;100478.53;123776;1101;64885;-77
2021/03/03 02:35:21;;;;;;;238.40;127.53;;;;;;;-1.38;79.49;100475.94;123747;1101;64908;-77
2021/03/03 02:37:48;;;;;;;231.33;127.30;;;;;;;-1.42;78.83;100474.16;123779;1102;64899;-77
2021/03/03 02:40:17;;;;;;;233.93;130.93;;;;;;;-1.48;79.20;100476.75;123766;1102;64963;-77
2021/03/03 02:42:44;;;;;;;230.30;125.63;;;;;;;-1.51;78.77;100474.12;123798;1102;64936;-78
2021/03/03 02:45:14;;;;;;;234.83;132.20;;;;;;;-1.55;78.89;100476.72;123787;1102;64979;-77
2021/03/03 02:47:42;;;;;;;224.23;126.17;;;;;;;-1.60;79.52;100473.20;123813;1102;64888;-77
2021/03/03 02:50:10;;;;;;;239.80;130.95;;;;;;;-1.59;79.16;100474.07;123775;1102;65065;-78
2021/03/03 02:52:56;;;;;;;233.45;130.35;;;;;;;-1.62;79.38;100468.83;123782;1102;64905;-76
2021/03/03 02:55:26;;;;;;;211.17;121.50;;;;;;;-1.64;79.25;100474.03;123422;1102;64995;-78
2021/03/03 02:57:54;;;;;;;232.80;132.93;;;;;;;-1.58;79.65;100474.09;123811;1102;64905;-78
2021/03/03 03:00:37;;;;;;;242.20;136.37;;;;;;;-1.49;80.04;100468.03;123769;1102;64902;-77
2021/03/03 03:03:42;;;;;;;254.90;135.67;;;;;;;-1.48;80.09;100468.90;123430;1102;64978;-79
2021/03/03 03:06:23;;;;;;;246.10;130.23;;;;;;;-1.51;79.51;100455.81;123750;1102;64976;-78
2021/03/03 03:08:53;;;;;;;228.73;127.37;;;;;;;-1.56;79.15;100461.02;123781;1102;64956;-77
2021/03/03 03:11:20;;;;;;;;;;;;;;;-1.56;79.67;100468.86;123827;1102;65231;-77
2021/03/03 03:13:49;;;;;;;242.40;131.85;;;;;;;-1.56;79.41;100463.63;123695;1102;64908;-78
2021/03/03 03:16:16;;;;;;;248.50;135.90;;;;;;;-1.56;79.34;100461.88;123800;1102;65087;-78
2021/03/03 03:18:50;;;;;;;238.35;130.95;;;;;;;-1.50;80.30;100460.17;123777;1101;64934;-77
2021/03/03 03:21:17;;;;;;;247.47;137.43;;;;;;;-1.54;79.49;100467.13;123409;1102;64966;-77
2021/03/03 03:23:46;;;;;;;250.30;137.63;;;;;;;-1.58;79.61;100460.13;123785;1102;64934;-77
2021/03/03 03:26:14;;;;;;;245.35;139.30;;;;;;;-1.59;80.49;100461.87;123465;1102;64931;-76
2021/03/03 03:28:41;;;;;;;253.90;140.40;;;;;;;-1.58;79.71;100453.18;123789;1102;64902;-77
2021/03/03 03:31:10;;;;;;;245.83;136.27;;;;;;;-1.57;80.28;100456.66;123792;1101;64965;-76
2021/03/03 03:33:37;;;;;;;241.70;140.73;;;;;;;-1.59;79.39;100456.64;123423;1101;64909;-76
2021/03/03 03:36:05;;;;;;;226.90;133.30;;;;;;;-1.62;79.90;100454.02;123836;1101;64886;-76
2021/03/03 03:38:33;;;;;;;246.53;135.70;;;;;;;-1.64;79.31;100453.13;123778;1102;64937;-76
2021/03/03 03:41:02;;;;;;;230.77;131.33;;;;;;;-1.70;79.07;100454.84;123752;1102;65029;-77
2021/03/03 03:43:30;;;;;;;232.00;130.63;;;;;;;-1.73;79.89;100446.98;123808;1102;64933;-77
2021/03/03 03:45:57;;;;;;;241.03;131.50;;;;;;;-1.77;79.63;100446.07;123778;1102;64853;-77
2021/03/03 03:48:24;;;;;;;231.17;130.83;;;;;;;-1.79;79.76;100443.47;123736;1102;64921;-77
2021/03/03 03:50:51;;;;;;;232.23;133.07;;;;;;;-1.81;79.98;100445.19;123433;1101;64886;-77
2021/03/03 03:53:18;;;;;;;232.57;133.80;;;;;;;-1.83;79.61;100433.84;123747;1102;64882;-78
2021/03/03 03:55:45;;;;;;;224.50;124.70;;;;;;;-1.87;79.90;100441.64;123782;1102;64918;-77
2021/03/03 03:58:11;;;;;;;234.57;128.73;;;;;;;-1.87;79.17;100444.26;123808;1101;64949;-77
2021/03/03 04:00:37;;;;;;;232.17;124.87;;;;;;;-1.89;79.85;100439.05;123446;1102;64914;-77
2021/03/03 04:03:04;;;;;;;235.00;132.20;;;;;;;-1.91;79.95;100447.73;123818;1102;64905;-77
2021/03/03 04:05:31;;;;;;;234.87;129.87;;;;;;;-1.91;79.59;100439.89;123836;1102;65049;-77
2021/03/03 04:07:57;;;;;;;215.10;123.20;;;;;;;-1.93;79.57;100437.26;123802;1102;65052;-78
2021/03/03 04:10:26;;;;;;;223.50;124.97;;;;;;;-1.99;79.23;100439.84;123816;1102;64851;-77
2021/03/03 04:12:53;;;;;;;215.32;120.47;;;;;;;-2.05;79.34;100440.67;123866;1102;64832;-77
2021/03/03 04:15:19;;;;;;;223.20;126.55;;;;;;;-2.05;79.61;100440.67;123772;1102;65464;-77
2021/03/03 04:17:46;;;;;;;229.60;126.80;;;;;;;-2.10;79.18;100439.77;123750;1102;64933;-77
2021/03/03 04:20:14;;;;;;;221.13;124.53;;;;;;;-2.16;79.27;100439.69;123846;1102;65338;-79
2021/03/03 04:22:41;;;;;;;231.13;130.33;;;;;;;-2.11;80.22;100435.38;123795;1102;64931;-77
2021/03/03 04:25:12;;;;;;;236.37;134.20;;;;;;;-2.10;80.46;100439.77;123806;1102;64885;-76
2021/03/03 04:27:38;;;;;;;233.15;134.50;;;;;;;-2.09;80.23;100440.63;123796;1102;64886;-76
2021/03/03 04:30:07;;;;;;;239.10;135.20;;;;;;;-2.09;80.20;100430.18;123384;1102;64950;-77
2021/03/03 04:32:34;;;;;;;235.57;131.53;;;;;;;-2.08;80.22;100432.81;123797;1102;64914;-77
2021/03/03 04:35:01;;;;;;;242.90;135.63;;;;;;;-2.08;80.29;100429.30;123781;1102;64825;-78
2021/03/03 04:37:27;;;;;;;252.87;138.60;;;;;;;-2.05;80.58;100426.74;123784;1099;64934;-77
2021/03/03 04:39:54;;;;;;;256.05;147.65;;;;;;;-2.01;80.67;100433.72;123743;1102;64882;-77
2021/03/03 04:42:20;;;;;;;240.27;137.80;;;;;;;-2.00;80.02;100425.91;123774;1102;65103;-77
2021/03/03 04:44:47;;;;;;;243.77;139.97;;;;;;;-2.01;79.89;100428.50;123393;1105;64930;-77
2021/03/03 04:47:13;;;;;;;239.97;141.88;;;;;;;-2.02;80.37;100425.02;123368;1102;64908;-76
2021/03/03 04:49:39;;;;;;;291.77;165.50;;;;;;;-2.01;80.87;100431.98;123777;1101;64886;-77
2021/03/03 04:52:06;;;;;;;271.60;160.00;;;;;;;-2.02;80.21;100419.80;123761;1102;64918;-78
2021/03/03 04:54:34;;;;;;;247.30;143.13;;;;;;;-2.06;80.09;100423.23;123765;1102;64953;-77
2021/03/03 04:57:03;;;;;;;244.80;149.70;;;;;;;-2.02;80.16;100419.80;123426;1102;64930;-77
2021/03/03 04:59:29;;;;;;;258.85;155.25;;;;;;;-2.04;80.81;100403.23;123411;1102;64882;-77
2021/03/03 05:01:55;;;;;;;251.07;141.23;;;;;;;-2.08;80.16;100419.76;123420;1102;64937;-77
2021/03/03 05:04:22;;;;;;;235.97;137.62;;;;;;;-2.09;80.35;100411.90;123789;1102;65298;-77
2021/03/03 05:06:48;;;;;;;237.70;138.20;;;;;;;-2.12;80.23;100415.36;123764;1101;64927;-77
2021/03/03 05:09:15;;;;;;;239.43;144.43;;;;;;;-2.17;80.57;100410.97;123871;1102;64882;-77
2021/03/03 05:11:41;;;;;;;256.10;146.35;;;;;;;-2.22;80.53;100410.92;123771;1102;64840;-76
2021/03/03 05:14:08;;;;;;;254.40;148.77;;;;;;;-2.25;79.87;100414.39;123476;1102;65016;-76
2021/03/03 05:16:35;;;;;;;231.53;129.80;;;;;;;-2.27;79.88;100413.50;123821;1101;65275;-78
2021/03/03 05:19:01;;;;;;;241.43;137.50;;;;;;;-2.31;80.22;100416.96;123787;1102;64985;-77
2021/03/03 05:21:27;;;;;;;230.25;134.95;;;;;;;-2.33;80.15;100408.23;123814;1102;64891;-77
2021/03/03 05:23:54;;;;;;;251.10;144.10;;;;;;;-2.32;80.57;100406.49;123774;1102;64902;-78
2021/03/03 05:26:20;;;;;;;248.83;144.53;;;;;;;-2.33;80.71;100405.63;123822;1102;64886;-77
2021/03/03 05:28:46;;;;;;;235.40;135.17;;;;;;;-2.30;80.01;100412.61;123802;1102;64895;-77
2021/03/03 05:31:13;;;;;;;237.30;132.50;;;;;;;-2.28;80.23;100409.15;123787;1102;64944;-77
2021/03/03 05:33:43;;;;;;;236.77;135.73;;;;;;;-2.29;80.35;100407.41;123434;1102;64976;-77
2021/03/03 05:36:10;;;;;;;;;;;;;;;-2.28;79.61;100408.28;123822;1102;64886;-77
2021/03/03 05:38:40;;;;;;;230.27;129.73;;;;;;;-2.28;80.40;100405.67;123787;1102;64888;-77
2021/03/03 05:41:08;;;;;;;227.73;127.20;;;;;;;-2.26;80.10;100410.05;123812;1102;64987;-77
2021/03/03 05:43:37;;;;;;;232.43;132.77;;;;;;;-2.26;79.41;100407.43;123770;1101;65047;-77
2021/03/03 05:46:05;;;;;;;234.63;133.50;;;;;;;-2.24;80.06;100407.42;123779;1102;65339;-77
2021/03/03 05:48:43;;;;;;;226.07;130.60;;;;;;;-2.24;79.30;100405.72;123748;1102;64962;-77
2021/03/03 05:51:10;;;;;;;238.20;137.53;;;;;;;-2.22;79.89;100408.31;123793;1102;64876;-78
2021/03/03 05:53:37;;;;;;;243.23;143.80;;;;;;;-2.16;80.09;100408.35;123783;1102;64893;-76
2021/03/03 05:56:09;;;;;;;246.00;145.30;;;;;;;-2.09;79.68;100402.32;123739;1102;65084;-77
2021/03/03 05:58:39;;;;;;;245.47;146.67;;;;;;;-2.00;80.41;100402.39;123753;1102;64984;-78
2021/03/03 06:01:09;;;;;;;249.20;143.22;;;;;;;-1.90;80.15;100410.28;123780;1102;64896;-77
2021/03/03 06:03:37;;;;;;;249.93;155.23;;;;;;;-1.84;79.29;100407.73;123447;1102;64998;-76
2021/03/03 06:06:04;;;;;;;262.00;158.77;;;;;;;-1.75;79.43;100405.15;123732;1102;64832;-76
2021/03/03 06:08:32;;;;;;;242.70;153.47;;;;;;;-1.66;80.22;100401.70;123693;1101;64907;-77
2021/03/03 06:11:03;;;;;;;265.07;158.70;;;;;;;-1.59;79.62;100393.91;123811;1102;64931;-77
2021/03/03 06:13:30;;;;;;;253.90;159.60;;;;;;;-1.50;80.05;100386.97;123789;1102;65354;-75
2021/03/03 06:15:56;;;;;;;276.33;170.57;;;;;;;-1.41;79.54;100390.50;123784;1102;64912;-77
2021/03/03 06:18:24;;;;;;;254.90;158.80;;;;;;;-1.18;80.15;100392.34;123772;1102;64901;-77
2021/03/03 06:20:55;;;;;;;259.73;164.83;;;;;;;-1.01;79.67;100392.38;123763;1102;64953;-77
2021/03/03 06:23:27;;;;;;;268.73;165.90;;;;;;;-0.89;80.14;100390.67;123761;1102;64824;-77
2021/03/03 06:25:56;;;;;;;260.40;162.85;;;;;;;-0.74;79.44;100381.98;123768;1102;64870;-76
2021/03/03 06:28:43;;;;;;;285.10;177.70;;;;;;;-0.60;79.46;100383.73;123759;1102;64835;-76
2021/03/03 06:31:23;;;;;;;248.25;159.15;;;;;;;-0.49;79.24;100381.98;123791;1102;64825;-77
2021/03/03 06:33:50;;;;;;;247.70;151.60;;;;;;;-0.34;78.96;100386.33;123768;1102;64988;-77
2021/03/03 06:36:26;;;;;;;255.13;158.80;;;;;;;-0.24;79.60;100370.64;123757;1102;64960;-77
2021/03/03 06:38:54;;;;;;;277.67;176.03;;;;;;;-0.13;79.19;100373.24;123805;1101;64895;-77
2021/03/03 06:41:21;;;;;;;265.13;162.10;;;;;;;-0.03;79.14;100377.60;123786;1102;64953;-77
2021/03/03 06:43:58;;;;;;;251.53;155.30;;;;;;;0.06;79.23;100378.45;123758;1101;64886;-81
2021/03/03 06:46:24;;;;;;;252.10;161.27;;;;;;;0.12;78.72;100383.67;123372;1102;64889;-78
2021/03/03 06:48:51;;;;;;;265.00;167.60;;;;;;;0.15;78.94;100374.05;123817;1101;64886;-77
2021/03/03 06:51:33;;;;;;;273.47;176.43;;;;;;;0.21;78.50;100379.30;123765;1102;64982;-78
2021/03/03 06:54:04;;;;;;;251.23;163.43;;;;;;;0.31;78.93;100376.63;123770;1102;64835;-77
2021/03/03 06:56:34;;;;;;;254.20;158.57;;;;;;;0.43;78.87;100379.22;123780;1102;64905;-78
2021/03/03 06:59:13;;;;;;;259.23;178.40;;;;;;;0.53;78.91;100375.69;123770;1102;65060;-77
2021/03/03 07:01:41;;;;;;;299.43;195.70;;;;;;;0.68;79.33;100368.63;123420;1102;64905;-77
2021/03/03 07:04:21;;;;;;;316.50;213.20;;;;;;;0.85;78.76;100370.29;123720;1102;64902;-77
2021/03/03 07:06:49;;;;;;;313.30;212.37;;;;;;;0.99;78.86;100371.96;123751;1102;64898;-78
2021/03/03 07:09:15;;;;;;;296.83;199.83;;;;;;;1.08;78.60;100374.55;123753;1102;64828;-78
2021/03/03 07:11:43;;;;;;;268.07;183.40;;;;;;;1.17;79.04;100366.59;123755;1102;64907;-78
2021/03/03 07:14:22;;;;;;;268.90;184.65;;;;;;;1.27;79.08;100364.79;123796;1102;64936;-78
2021/03/03 07:17:08;;;;;;;280.57;190.83;;;;;;;1.43;79.25;100357.67;123784;1102;64882;-78
2021/03/03 07:19:58;;;;;;;283.10;190.70;;;;;;;1.61;79.11;100354.89;123782;1102;65243;-78
2021/03/03 07:22:49;;;;;;;257.20;176.30;;;;;;;1.77;79.24;100354.76;123744;1102;64908;-77
2021/03/03 07:25:18;;;;;;;250.40;162.40;;;;;;;1.91;79.09;100353.72;123713;1102;65165;-77
2021/03/03 07:27:48;;;;;;;245.00;161.37;;;;;;;2.03;78.64;100349.22;123865;1102;64937;-78
2021/03/03 07:30:16;;;;;;;242.75;154.27;;;;;;;2.08;78.43;100350.94;123428;1102;64965;-78
2021/03/03 07:32:43;;;;;;;233.97;153.20;;;;;;;2.16;78.23;100353.49;123831;1102;65404;-78
2021/03/03 07:35:12;;;;;;;228.40;146.37;;;;;;;2.23;78.53;100347.25;123808;1102;64902;-78
2021/03/03 07:37:41;;;;;;;213.83;135.83;;;;;;;2.31;77.80;100345.41;123843;1102;65013;-78
2021/03/03 07:40:14;;;;;;;205.67;133.73;;;;;;;2.44;77.84;100340.88;123536;1102;64857;-78
2021/03/03 07:42:45;;;;;;;202.57;130.23;;;;;;;2.58;78.16;100338.95;123876;1101;65001;-78
2021/03/03 07:45:16;;;;;;;183.87;123.53;;;;;;;2.73;77.95;100337.00;123950;1102;64925;-78
2021/03/03 07:47:43;;;;;;;196.80;127.50;;;;;;;2.84;77.81;100330.72;123859;1102;65334;-78
2021/03/03 07:50:15;;;;;;;208.67;130.10;;;;;;;2.95;77.80;100335.83;123855;1101;65011;-78
2021/03/03 07:52:48;;;;;;;209.27;132.20;;;;;;;3.03;77.10;100333.95;123580;1102;64995;-77
2021/03/03 07:55:14;;;;;;;208.33;137.30;;;;;;;3.11;76.89;100333.84;123810;1102;64902;-78
2021/03/03 07:57:48;;;;;;;207.20;135.00;;;;;;;3.19;77.12;100329.32;123806;1102;65011;-78
2021/03/03 08:00:27;;;;;;;200.87;135.13;;;;;;;3.28;76.60;100320.39;123778;1102;64908;-78
2021/03/03 08:02:56;;;;;;;188.67;123.53;;;;;;;3.38;76.71;100321.13;123784;1102;64982;-78
2021/03/03 08:05:31;;;;;;;188.10;123.07;;;;;;;3.50;76.98;100321.80;123740;1102;64946;-77
2021/03/03 08:08:23;;;;;;;180.70;121.57;;;;;;;3.65;76.51;100314.52;123804;1102;64882;-78
2021/03/03 08:11:12;;;;;;;192.30;124.90;;;;;;;3.76;76.08;100317.81;123432;1102;64934;-78
2021/03/03 08:13:42;;;;;;;174.90;121.23;;;;;;;3.88;76.14;100314.11;123752;1101;64886;-76
2021/03/03 08:16:09;;;;;;;;;;;;;;;4.00;75.43;100318.27;123803;1101;65010;-77
2021/03/03 08:18:57;;;;;;;192.80;119.87;;;;;;;4.10;75.88;100309.28;123747;1102;64905;-77
2021/03/03 08:21:28;;;;;;;178.07;119.60;;;;;;;4.23;75.50;100310.78;123801;1102;64905;-78
2021/03/03 08:23:59;;;;;;;171.03;117.03;;;;;;;4.34;75.10;100308.79;123828;1102;64903;-77
2021/03/03 08:26:29;;;;;;;177.23;112.63;;;;;;;4.43;74.75;100299.83;123408;1102;64966;-78
2021/03/03 08:29:15;;;;;;;161.68;109.25;;;;;;;4.55;74.78;100298.69;123798;1102;64905;-78
2021/03/03 08:31:41;;;;;;;166.80;113.80;;;;;;;4.68;74.96;100294.02;123795;1102;64998;-77
2021/03/03 08:34:10;;;;;;;156.93;107.03;;;;;;;4.79;74.87;100290.25;123794;1100;64956;-77
2021/03/03 08:36:37;;;;;;;154.30;103.97;;;;;;;4.93;74.71;100286.43;123831;1102;64885;-78
2021/03/03 08:39:03;;;;;;;149.07;102.87;;;;;;;5.06;74.89;100293.16;123770;1102;64901;-77
2021/03/03 08:41:30;;;;;;;158.17;107.40;;;;;;;5.23;74.68;100288.33;123359;1102;64908;-79
2021/03/03 08:44:06;;;;;;;151.83;98.80;;;;;;;5.37;74.43;100282.72;123414;1102;65118;-77
2021/03/03 08:46:33;;;;;;;139.03;95.17;;;;;;;5.48;74.19;100283.31;123778;1102;64995;-77
2021/03/03 08:49:00;;;;;;;103.77;70.93;;;;;;;5.59;73.60;100287.46;123788;1102;64917;-77
2021/03/03 08:51:39;;;;;;;113.60;76.70;;;;;;;5.66;73.06;100275.79;123727;1102;64940;-79
2021/03/03 08:54:07;;;;;;;105.40;70.15;;;;;;;5.75;72.74;100277.34;123731;1102;64896;-79
2021/03/03 08:56:40;;;;;;;116.37;75.67;;;;;;;5.83;72.59;100278.01;123781;1102;64958;-76
2021/03/03 08:59:29;;;;;;;111.80;75.37;;;;;;;5.92;72.89;100272.45;123760;1102;64937;-78
2021/03/03 09:01:56;;;;;;;118.27;74.17;;;;;;;6.04;72.19;100271.30;123802;1102;64937;-78
2021/03/03 09:04:38;;;;;;;108.33;72.63;;;;;;;6.15;72.17;100263.91;123754;1102;65029;-78
2021/03/03 09:07:07;;;;;;;99.55;66.92;;;;;;;6.27;71.69;100260.06;123748;1102;64928;-78
2021/03/03 09:09:46;;;;;;;107.27;72.07;;;;;;;6.37;72.01;100257.09;123816;1102;64905;-78
2021/03/03 09:12:15;;;;;;;106.03;67.93;;;;;;;6.49;71.73;100257.64;123478;1102;64905;-78
2021/03/03 09:14:43;;;;;;;101.90;65.57;;;;;;;6.63;71.21;100259.86;123792;1102;64919;-77
2021/03/03 09:17:13;;;;;;;95.23;65.57;;;;;;;6.77;71.32;100253.23;123793;1102;64889;-77
2021/03/03 09:19:40;;;;;;;99.65;65.62;;;;;;;6.93;70.75;100248.32;123782;1102;64910;-78
2021/03/03 09:22:26;;;;;;;90.93;60.20;;;;;;;7.11;70.53;100249.52;123422;1102;64997;-77
2021/03/03 09:25:04;;;;;;;90.57;61.60;;;;;;;7.28;69.88;100248.95;123795;1101;64904;-77
2021/03/03 09:27:30;;;;;;;80.53;54.50;;;;;;;7.42;70.04;100249.34;123767;1102;65285;-77
2021/03/03 09:29:57;;;;;;;83.83;54.43;;;;;;;7.55;69.63;100238.32;123784;1101;64892;-78
2021/03/03 09:32:24;;;;;;;83.70;54.30;;;;;;;7.65;69.33;100237.08;123379;1102;65061;-78
2021/03/03 09:35:05;;;;;;;85.23;54.40;;;;;;;7.78;69.35;100234.87;123797;1102;64982;-78
2021/03/03 09:37:41;;;;;;;79.17;50.97;;;;;;;7.90;68.74;100229.13;123778;1102;64908;-78
2021/03/03 09:40:13;;;;;;;73.33;48.43;;;;;;;8.01;68.35;100228.74;123791;1102;64870;-78
2021/03/03 09:42:47;;;;;;;68.73;48.63;;;;;;;8.16;68.73;100229.94;123858;1102;65307;-77
2021/03/03 09:45:18;;;;;;;71.80;48.73;;;;;;;8.31;68.58;100224.92;123751;1102;64895;-78
2021/03/03 09:47:46;;;;;;;73.37;47.07;;;;;;;8.44;68.08;100219.19;123775;1101;65164;-78
2021/03/03 09:50:18;;;;;;;71.33;47.20;;;;;;;8.55;67.76;100220.48;123800;1100;65011;-79
2021/03/03 09:52:46;;;;;;;57.83;40.70;;;;;;;8.67;66.72;100216.50;123797;1102;64885;-79
2021/03/03 09:55:15;;;;;;;61.23;40.40;;;;;;;8.79;66.43;100210.70;123797;1102;64864;-77
2021/03/03 09:57:43;;;;;;;62.43;42.13;;;;;;;8.93;65.93;100209.28;123821;1102;65043;-78
2021/03/03 10:00:12;;;;;;;65.43;44.37;;;;;;;9.04;65.69;100204.38;123786;1102;65036;-78
2021/03/03 10:02:46;;;;;;;61.10;41.30;;;;;;;9.19;64.08;100198.43;123838;1102;64832;-78
2021/03/03 10:05:20;;;;;;;65.65;41.30;;;;;;;9.35;64.81;100200.45;123826;1102;64940;-76
2021/03/03 10:07:57;;;;;;;58.17;41.27;;;;;;;9.49;64.54;100199.84;123419;1102;64885;-78
2021/03/03 10:10:32;;;;;;;60.05;40.90;;;;;;;9.62;64.59;100196.58;123432;1102;65536;-77
2021/03/03 10:13:00;;;;;;;57.27;39.40;;;;;;;9.78;63.71;100198.58;123773;1102;64940;-77
2021/03/03 10:15:36;;;;;;;55.80;38.53;;;;;;;9.89;62.91;100194.48;123827;1101;64915;-77
2021/03/03 10:18:09;;;;;;;55.60;39.57;;;;;;;10.00;62.36;100187.81;123479;1102;64927;-77
2021/03/03 10:20:47;;;;;;;54.90;36.73;;;;;;;10.14;62.12;100189.84;123832;1102;64924;-77
2021/03/03 10:23:15;;;;;;;51.20;35.30;;;;;;;10.29;61.58;100184.73;123762;1102;65033;-77
2021/03/03 10:25:47;;;;;;;52.00;36.73;;;;;;;10.44;62.07;100184.93;123770;1102;64922;-77
2021/03/03 10:28:40;;;;;;;49.20;34.30;;;;;;;10.59;61.62;100186.88;123786;1102;64882;-78
2021/03/03 10:31:18;;;;;;;51.60;37.00;;;;;;;10.71;61.55;100172.92;123824;1102;64879;-77
2021/03/03 10:33:47;;;;;;;50.60;36.40;;;;;;;10.83;61.16;100173.29;123776;1102;64908;-78
2021/03/03 10:36:14;;;;;;;54.40;37.93;;;;;;;10.93;60.66;100167.42;123799;1102;64888;-79
2021/03/03 10:38:53;;;;;;;51.23;35.53;;;;;;;11.07;59.29;100168.54;123771;1102;64899;-77
2021/03/03 10:41:25;;;;;;;54.23;37.23;;;;;;;11.18;59.32;100153.70;123446;1102;64889;-79
2021/03/03 10:43:51;;;;;;;53.20;37.30;;;;;;;11.27;58.80;100156.84;123824;1102;64927;-78
2021/03/03 10:46:23;;;;;;;47.57;32.27;;;;;;;11.34;58.31;100145.77;123814;1102;65282;-78
2021/03/03 10:48:51;;;;;;;49.03;34.00;;;;;;;11.46;57.16;100138.95;123735;1102;64867;-79
2021/03/03 10:51:33;;;;;;;44.70;30.73;;;;;;;11.55;56.45;100135.78;123801;1102;65282;-77
2021/03/03 10:53:59;;;;;;;54.27;33.83;;;;;;;11.63;54.33;100128.22;123481;1102;64899;-78
2021/03/03 10:56:40;;;;;;;49.77;33.20;;;;;;;11.69;53.73;100128.84;123798;1102;64908;-78
2021/03/03 10:59:30;;;;;;;49.37;32.47;;;;;;;11.83;52.58;100123.64;123792;1102;64956;-79
2021/03/03 11:01:58;;;;;;;58.93;35.80;;;;;;;12.01;53.55;100121.82;123741;1102;64896;-78
2021/03/03 11:04:42;;;;;;;49.60;35.00;;;;;;;12.12;54.36;100118.55;123827;1102;65027;-78
2021/03/03 11:07:09;;;;;;;49.87;33.97;;;;;;;12.23;53.01;100110.80;123782;1102;64927;-79